This is the latest recevied weather packets stored in our database for station/object KC1OEK-13. If no packets are shown the sender has not sent any weather packets the latest 1 day(s).
| Time | Temp. | Humidity | Pressure | Rain* | Wind** | Luminosity | Snow |
|---|---|---|---|---|---|---|---|
| 1778069515 | 16.67° C | 83% | 1011.7 hPa | 0 mm | - | 202 W/m² | - |
| 1778067400 | 15° C | 88% | 1011.6 hPa | 0 mm | - | 90 W/m² | - |
| 1778066490 | 15° C | 89% | 1011.9 hPa | 0 mm | - | 62 W/m² | - |
| 1778066188 | 14.44° C | 90% | 1011.7 hPa | 0 mm | - | 89 W/m² | - |
| 1778065280 | 13.89° C | 92% | 1011.8 hPa | 0 mm | - | 77 W/m² | - |
| 1778063766 | 13.33° C | 94% | 1011.6 hPa | 0 mm | - | 36 W/m² | - |
| 1778063161 | 12.78° C | 94% | 1011.7 hPa | 0 mm | - | 22 W/m² | - |
| 1778062858 | 12.78° C | 95% | 1011.8 hPa | 0 mm | - | 23 W/m² | - |
| 1778061950 | 12.78° C | 94% | 1011.7 hPa | 0 mm | - | 12 W/m² | - |
| 1778061346 | 12.78° C | 94% | 1011.6 hPa | 0 mm | - | 8 W/m² | - |
| 1778061042 | 12.78° C | 94% | 1011.7 hPa | 0 mm | - | 5 W/m² | - |
| 1778060740 | 12.78° C | 94% | 1011.6 hPa | 0 mm | - | 3 W/m² | - |
| 1778060438 | 12.78° C | 94% | 1011.7 hPa | 0 mm | - | 1 W/m² | - |
| 1778060136 | 12.78° C | 93% | 1011.7 hPa | 0 mm | - | 1 W/m² | - |
| 1778059833 | 12.78° C | 93% | 1011.6 hPa | 0 mm | - | 0 W/m² | - |
| 1778059227 | 12.78° C | 93% | 1011.7 hPa | 0 mm | - | 0 W/m² | - |
| 1778058926 | 12.78° C | 93% | 1011.5 hPa | 0 mm | - | 0 W/m² | - |
| 1778057107 | 13.33° C | 91% | 1011.9 hPa | 0 mm | - | 0 W/m² | - |
| 1778056197 | 13.33° C | 90% | 1011.9 hPa | 0 mm | - | 0 W/m² | - |
| 1778055894 | 13.33° C | 90% | 1011.9 hPa | 0 mm | - | 0 W/m² | - |
| 1778055590 | 13.33° C | 89% | 1011.9 hPa | 0 mm | - | 0 W/m² | - |
| 1778054682 | 13.89° C | 89% | 1011.7 hPa | 0 mm | - | 0 W/m² | - |
| 1778054380 | 13.89° C | 89% | 1011.8 hPa | 0 mm | - | 0 W/m² | - |
| 1778054077 | 13.89° C | 89% | 1011.7 hPa | 0 mm | - | 0 W/m² | - |
| 1778053774 | 13.89° C | 88% | 1011.8 hPa | 0 mm | - | 0 W/m² | - |
* Rain latest hour (hover to see other rain measurements)
** Current wind speed in m/s (hover to see current wind gust speed)